• Join FlightAware (Why Join?)
  • Login
  • US Flag 
11:33AM EDT


 

Airport Tracker/Info


-or-


 

Live Flight TrackerFlight Track Log ✈ EJA929 ✈ 08-Jul-2013 ✈ KSJC - MYAM / MHH

Flight Track Log - Related Links

Times and Time Zones

All times are in EDT time to prevent confusion due to time zone crossing. See the EJA929 flight status page for this flight to view local times or setup timezone preferences in your user account.

Time Position Orientation Groundspeed Altitude Reporting Facility
EDT Latitude Longitude Course Direction KTS MPH feet Rate Location/Type
12:00PM 37.3500 -121.9167 141° Southeast 175 201 900  Level Northern Cal TRACON
12:01PM 37.3000 -121.8667 141° Southeast 208 239 4,300 3,300 Climbing Northern Cal TRACON
12:02PM 37.2667 -121.8000 122° Southeast 225 259 7,600 3,000 Climbing Northern Cal TRACON
12:03PM 37.2158 -121.8347 209° Southwest 248 285 11,000 2,640 Climbing Oakland Center
12:04PM 37.2722 -121.8844 325° Northwest 271 312 13,600 1,740 Climbing Oakland Center
12:05PM 37.3478 -121.9286 335° Northwest 299 344 14,600 1,080 Climbing Oakland Center
12:06PM 37.4386 -121.9508 349° North 336 387 15,900 1,260 Climbing Oakland Center
12:07PM 37.5567 -121.9633 355° North 356 410 17,300 1,260 Climbing Oakland Center
12:09PM 37.6592 -121.9725 356° North 368 423 18,500 1,140 Climbing Oakland Center
12:10PM 37.7658 -121.9636 North 392 451 19,700 1,140 Climbing Oakland Center
12:11PM 37.8378 -121.8625 48° Northeast 394 453 20,900 1,140 Climbing Oakland Center
12:12PM 37.8753 -121.7300 70° East 401 461 22,100 1,200 Climbing Oakland Center
12:13PM 37.9131 -121.5931 71° East 413 475 23,400 1,260 Climbing Oakland Center
12:14PM 37.9589 -121.4264 71° East 422 486 24,800 1,200 Climbing Oakland Center
12:15PM 37.9978 -121.2822 71° East 433 498 26,000 1,140 Climbing Oakland Center
12:16PM 38.0381 -121.1347 71° East 443 510 27,200 1,140 Climbing Oakland Center
12:17PM 38.0767 -120.9842 72° East 450 518 28,400 1,140 Climbing Oakland Center
12:18PM 38.0983 -120.8250 80° East 455 524 29,600 1,080 Climbing Oakland Center
12:19PM 38.1203 -120.6631 80° East 464 534 30,700 960 Climbing Oakland Center
12:20PM 38.1425 -120.4961 80° East 476 548 31,600 900 Climbing Oakland Center
12:21PM 38.1700 -120.2858 80° East 497 572 32,600 720 Climbing Oakland Center
12:22PM 38.1925 -120.1081 81° East 507 583 33,100 480 Climbing Oakland Center
12:23PM 38.2164 -119.9219 81° East 529 609 33,600 960 Climbing Oakland Center
12:24PM 38.2403 -119.7372 81° East 531 611 35,100 1,440 Climbing Oakland Center
12:25PM 38.2622 -119.5561 81° East 519 597 36,600 1,380 Climbing Oakland Center
12:26PM 38.2844 -119.3742 81° East 508 585 38,000 1,020 Climbing Oakland Center
12:27PM 38.3058 -119.1972 81° East 508 585 38,700 600 Climbing Oakland Center
12:28PM 38.3278 -119.0164 81° East 516 594 39,300 780 Climbing Oakland Center
12:29PM 38.3539 -118.7975 81° East 522 601 40,300 840 Climbing Oakland Center
12:30PM 38.3750 -118.6156 82° East 521 600 41,100 360 Climbing Oakland Center
12:31PM 38.3944 -118.4336 82° East 520 598 41,100  Level Oakland Center
12:32PM 38.3933 -118.2461 90° East 529 609 41,100  Level Oakland Center
12:33PM 38.3894 -118.0561 91° East 534 615 41,100  Level Oakland Center
12:34PM 38.3861 -117.8653 91° East 536 617 41,100 -60 Level Oakland Center
12:35PM 38.3794 -117.6725 92° East 543 625 41,000  Descending Oakland Center
12:36PM 38.3767 -117.5569 92° East 542 624 41,100 60 Climbing Salt Lake Center
12:37PM 38.3714 -117.3625 92° East 542 624 41,100 -60 Level Salt Lake Center
12:38PM 38.3653 -117.1264 92° East 545 627 41,000 -60 Descending Salt Lake Center
12:39PM 38.3586 -116.9300 92° East 547 629 41,000  Level Salt Lake Center
12:40PM 38.3511 -116.7350 93° East 547 629 41,000  Level Salt Lake Center
12:41PM 38.3450 -116.5392 92° East 549 632 41,100  Climbing Salt Lake Center
12:42PM 38.3372 -116.3433 93° East 552 635 41,100  Level Salt Lake Center
12:43PM 38.3303 -116.1483 93° East 551 634 41,100 -60 Level Salt Lake Center
12:44PM 38.3228 -115.9539 93° East 550 633 41,000 -60 Descending Salt Lake Center
12:45PM 38.3153 -115.7592 93° East 551 634 41,000  Level Salt Lake Center
12:46PM 38.3050 -115.5275 93° East 548 631 41,000  Level Salt Lake Center
12:47PM 38.2967 -115.3325 93° East 550 633 41,100  Climbing Salt Lake Center
12:48PM 38.2886 -115.1428 93° East 546 628 41,000 -60 Descending Salt Lake Center
12:49PM 38.2800 -114.9494 93° East 548 631 41,000  Level Salt Lake Center
12:50PM 38.2697 -114.7575 94° East 547 629 41,100  Climbing Salt Lake Center
12:51PM 38.2575 -114.5250 94° East 549 632 41,100  Level Salt Lake Center
12:52PM 38.2472 -114.3325 94° East 546 628 41,100  Level Salt Lake Center
12:53PM 38.2381 -114.1400 93° East 546 628 41,100  Level Salt Lake Center
12:54PM 38.2267 -113.9489 94° East 543 625 41,100 -60 Level Salt Lake Center
12:55PM 38.2147 -113.7575 94° East 543 625 41,000  Descending Salt Lake Center
12:56PM 38.2039 -113.5661 94° East 544 626 41,100  Climbing Salt Lake Center
12:58PM 38.1919 -113.3747 94° East 541 623 41,000  Descending Salt Lake Center
12:59PM 38.1778 -113.1447 94° East 543 625 41,100 60 Climbing Salt Lake Center
01:00PM 38.1650 -112.9511 95° East 546 628 41,200 420 Climbing Salt Lake Center
01:01PM 38.1522 -112.7611 95° East 540 621 42,000 780 Climbing Salt Lake Center
01:02PM 38.1406 -112.5750 94° East 529 609 42,900 480 Climbing Salt Lake Center
01:03PM 38.1278 -112.3908 95° East 523 602 43,000 60 Climbing Salt Lake Center
01:04PM 38.1144 -112.2039 95° East 528 608 43,100  Climbing Salt Lake Center
01:05PM 38.1000 -112.0167 96° East 532 612 43,100  Level Salt Lake Center
01:06PM 38.0844 -111.7931 95° East 530 610 43,100 240 Level Salt Lake Center
01:07PM 38.0694 -111.6056 96° East 532 612 43,600 660 Climbing Salt Lake Center
01:08PM 38.0544 -111.4267 96° East 517 595 44,500 660 Climbing Salt Lake Center
01:09PM 38.0406 -111.2514 96° East 504 580 45,000 240 Climbing Salt Lake Center
01:10PM 38.0261 -111.0758 96° East 500 575 45,100  Climbing Salt Lake Center
01:11PM 38.0108 -110.8956 96° East 503 579 45,100  Level Salt Lake Center
01:11PM 38.0003 -110.7822 97° East 504 580 45,100 -120 Level Denver Center
01:13PM 37.9869 -110.6164 96° East 504 580 45,000  Descending Denver Center
01:14PM 37.9706 -110.4419 97° East 504 580 45,100  Climbing Denver Center
01:15PM 37.9567 -110.2744 96° East 501 577 45,100  Level Denver Center
01:16PM 37.9392 -110.0803 96° East 497 572 45,100 -60 Level Denver Center
01:17PM 37.9214 -109.8878 97° East 493 567 45,000  Descending Denver Center
01:18PM 37.9056 -109.7233 97° East 491 565 45,100  Climbing Denver Center
01:19PM 37.8872 -109.5297 97° East 493 567 45,100  Level Denver Center
01:20PM 37.8717 -109.3642 97° East 494 568 45,100 -60 Level Denver Center
01:21PM 37.8528 -109.1728 97° East 490 564 45,000 -60 Descending Denver Center
01:22PM 37.8361 -109.0069 97° East 494 568 45,000  Level Denver Center
01:23PM 37.8197 -108.8411 97° East 495 570 45,000  Level Denver Center
01:24PM 37.8003 -108.6489 97° East 493 567 45,100  Climbing Denver Center
01:25PM 37.7831 -108.4847 98° East 493 567 45,100 -60 Level Denver Center
01:26PM 37.7625 -108.2903 98° East 496 571 45,000  Descending Denver Center
01:27PM 37.7450 -108.1247 98° East 496 571 45,100  Climbing Denver Center
01:28PM 37.7239 -107.9331 98° East 494 568 45,100  Level Denver Center
01:29PM 37.7058 -107.7667 98° East 496 571 45,100  Level Denver Center
01:30PM 37.6833 -107.5733 98° East 498 573 45,100 -60 Level Denver Center
01:31PM 37.6533 -107.4108 103° East 495 570 45,000  Descending Denver Center
01:32PM 37.6131 -107.2236 105° East 493 567 45,100  Climbing Denver Center
01:33PM 37.5772 -107.0628 106° East 495 570 45,100  Level Denver Center
01:34PM 37.5372 -106.8739 105° East 497 572 45,100  Level Denver Center
01:35PM 37.5028 -106.7158 105° East 491 565 45,100 -60 Level Denver Center
01:36PM 37.4681 -106.5567 105° East 492 566 45,000  Descending Denver Center
01:37PM 37.4267 -106.3711 106° East 492 566 45,100  Climbing Denver Center
01:38PM 37.3903 -106.2111 106° East 496 571 45,100  Level Denver Center
01:39PM 37.3483 -106.0247 106° East 495 570 45,100 60 Level Denver Center
01:40PM 37.3106 -105.8656 107° East 495 570 45,300 300 Climbing Denver Center
01:41PM 37.2603 -105.6956 110° East 485 558 45,800 480 Climbing Denver Center
01:43PM 37.2061 -105.5236 112° Southeast 478 550 46,400 480 Climbing Denver Center
01:44PM 37.1567 -105.3792 113° Southeast 471 542 46,800 240 Climbing Denver Center
01:45PM 37.1094 -105.2386 113° Southeast 463 533 47,000 120 Climbing Denver Center
01:46PM 37.0639 -105.0983 112° Southeast 458 527 47,100 -60 Climbing Denver Center
01:47PM 37.0053 -104.9206 112° Southeast 459 528 46,900 -360 Descending Denver Center
01:48PM 36.9681 -104.7583 106° East 470 541 46,400 -480 Descending Denver Center
01:49PM 36.9317 -104.6067 107° East 475 547 46,000 -540 Descending Denver Center
01:50PM 36.8883 -104.4256 107° East 486 559 45,400 -480 Descending Denver Center
01:51PM 36.8503 -104.2692 107° East 490 564 45,100 -180 Descending Denver Center
01:52PM 36.8067 -104.0858 106° East 496 571 45,100 -60 Level Denver Center
01:53PM 36.7694 -103.9300 107° East 493 567 45,000  Descending Denver Center
01:54PM 36.7253 -103.7494 107° East 491 565 45,100  Climbing Denver Center
01:55PM 36.6861 -103.5950 108° East 490 564 45,100 -60 Level Denver Center
01:56PM 36.6394 -103.4033 107° East 490 564 45,000 -60 Descending Albuquerque Center
01:57PM 36.5986 -103.2406 107° East 488 562 45,000  Level Albuquerque Center
01:58PM 36.5575 -103.0767 107° East 491 565 45,000  Level Albuquerque Center
01:59PM 36.5164 -102.9133 107° East 490 564 45,000  Level Albuquerque Center
02:00PM 36.4725 -102.7400 107° East 487 560 45,000  Level Albuquerque Center
02:01PM 36.4308 -102.5789 108° East 488 562 45,000  Level Albuquerque Center
02:02PM 36.3892 -102.4206 108° East 485 558 45,100  Climbing Albuquerque Center
02:03PM 36.3478 -102.2592 108° East 488 562 45,000 -60 Descending Albuquerque Center
02:04PM 36.3061 -102.1006 108° East 486 559 45,000  Level Albuquerque Center
02:05PM 36.2558 -101.9092 108° East 485 558 45,100  Climbing Albuquerque Center
02:06PM 36.2131 -101.7483 108° East 489 563 45,100  Level Albuquerque Center
02:07PM 36.1711 -101.5875 108° East 491 565 45,100  Level Albuquerque Center
02:08PM 36.1275 -101.4272 109° East 490 564 45,100  Level Albuquerque Center
02:09PM 36.0847 -101.2664 108° East 491 565 45,100 -60 Level Albuquerque Center
02:10PM 36.0417 -101.1064 108° East 484 557 45,000  Descending Albuquerque Center
02:11PM 36.0006 -100.9525 108° East 481 554 45,100  Climbing Albuquerque Center
02:13PM 35.9556 -100.7919 109° East 483 556 45,000 -60 Descending Albuquerque Center
02:14PM 35.9117 -100.6350 109° East 484 557 45,000  Level Albuquerque Center
02:15PM 35.8603 -100.4469 109° East 482 555 45,000  Level Albuquerque Center
02:16PM 35.8161 -100.2897 109° East 485 558 45,000  Level Albuquerque Center
02:17PM 35.7728 -100.1331 109° East 485 558 45,000  Level Albuquerque Center
02:18PM 35.7281 -99.9764 109° East 485 558 45,000  Level Albuquerque Center
02:19PM 35.6828 -99.8219 110° East 484 557 45,000  Level Albuquerque Center
02:20PM 35.6383 -99.6644 109° East 486 559 45,000  Level Albuquerque Center
02:21PM 35.5889 -99.5039 111° Southeast 492 566 45,000  Level Fort Worth Center
02:22PM 35.5433 -99.3472 110° East 492 566 45,000  Level Fort Worth Center
02:23PM 35.4978 -99.1906 110° East 492 566 45,000  Level Fort Worth Center
02:24PM 35.4519 -99.0317 109° East 492 566 45,000  Level Fort Worth Center
02:25PM 35.4081 -98.8756 109° East 492 566 45,000  Level Fort Worth Center
02:26PM 35.3619 -98.7194 110° East 492 566 45,000  Level Fort Worth Center
02:27PM 35.3153 -98.5686 111° Southeast 487 560 45,000  Level Fort Worth Center
02:28PM 35.2747 -98.4333 110° East 478 550 45,000  Level Fort Worth Center
02:29PM 35.2281 -98.2803 110° East 473 544 45,000  Level Fort Worth Center
02:30PM 35.1811 -98.1272 111° Southeast 473 544 45,000  Level Fort Worth Center
02:31PM 35.1339 -97.9719 110° East 478 550 45,000  Level Fort Worth Center
02:32PM 35.0864 -97.8194 111° Southeast 478 550 45,000  Level Fort Worth Center
02:33PM 35.0389 -97.6672 111° Southeast 478 550 45,000  Level Fort Worth Center
02:34PM 34.9892 -97.5125 111° Southeast 478 550 45,000  Level Fort Worth Center
02:35PM 34.9369 -97.3400 110° East 484 557 45,000  Level Fort Worth Center
02:36PM 34.8908 -97.1883 110° East 484 557 45,000  Level Fort Worth Center
02:37PM 34.8425 -97.0367 111° Southeast 489 563 45,000  Level Fort Worth Center
02:38PM 34.7939 -96.8800 111° Southeast 489 563 45,000  Level Fort Worth Center
02:39PM 34.7453 -96.7261 111° Southeast 489 563 45,000  Level Fort Worth Center
02:40PM 34.6964 -96.5725 111° Southeast 489 563 45,000  Level Fort Worth Center
02:41PM 34.6472 -96.4214 112° Southeast 489 563 45,000  Level Fort Worth Center
02:42PM 34.5981 -96.2631 111° Southeast 489 563 45,000  Level Fort Worth Center
02:43PM 34.5483 -96.1125 112° Southeast 489 563 45,000  Level Fort Worth Center
02:44PM 34.4989 -95.9594 111° Southeast 489 563 45,000  Level Fort Worth Center
02:45PM 34.4489 -95.8067 112° Southeast 489 563 45,000  Level Fort Worth Center
02:46PM 34.3989 -95.6542 112° Southeast 489 563 45,000  Level Fort Worth Center
02:47PM 34.3531 -95.5067 111° Southeast 489 563 45,000  Level Fort Worth Center
02:48PM 34.3047 -95.3544 111° Southeast 484 557 45,000  Level Fort Worth Center
02:49PM 34.2542 -95.2075 113° Southeast 484 557 45,000  Level Fort Worth Center
02:50PM 34.2033 -95.0581 112° Southeast 484 557 45,000  Level Fort Worth Center
02:51PM 34.1567 -94.9061 110° East 479 551 45,000  Level Fort Worth Center
02:52PM 34.1036 -94.7572 113° Southeast 479 551 45,000  Level Fort Worth Center
02:53PM 34.0544 -94.6083 112° Southeast 479 551 45,000  Level Fort Worth Center
02:54PM 34.0031 -94.4572 112° Southeast 479 551 45,000  Level Fort Worth Center
02:55PM 33.9558 -94.3261 113° Southeast 479 551 45,000  Level Fort Worth Center
02:56PM 33.9064 -94.1778 112° Southeast 479 551 45,000  Level Fort Worth Center
02:57PM 33.8544 -94.0269 112° Southeast 479 551 45,000  Level Fort Worth Center
02:58PM 33.8064 -93.8789 111° Southeast 479 551 45,000  Level Fort Worth Center
02:59PM 33.7542 -93.7311 113° Southeast 479 551 45,000  Level Fort Worth Center
03:00PM 33.6997 -93.5811 114° Southeast 479 551 45,000  Level Fort Worth Center
03:01PM 33.6514 -93.4361 112° Southeast 472 543 45,000  Level Fort Worth Center
03:02PM 33.5986 -93.2914 114° Southeast 472 543 45,000  Level Fort Worth Center
03:03PM 33.5458 -93.1442 113° Southeast 472 543 45,000  Level Fort Worth Center
03:04PM 33.4947 -92.9997 113° Southeast 477 549 45,000  Level Fort Worth Center
03:05PM 33.4394 -92.8533 114° Southeast 477 549 45,000  Level Fort Worth Center
03:06PM 33.3925 -92.7114 112° Southeast 470 541 45,000  Level Fort Worth Center
03:07PM 33.3389 -92.5650 114° Southeast 470 541 45,000  Level Fort Worth Center
03:08PM 33.2872 -92.4189 113° Southeast 470 541 45,000  Level Fort Worth Center
03:09PM 33.2153 -92.2394 116° Southeast 485 558 45,000  Level Memphis Center
03:10PM 33.1672 -92.0944 112° Southeast 485 558 45,000  Level Memphis Center
03:11PM 33.1064 -91.9519 117° Southeast 479 551 45,000  Level Memphis Center
03:12PM 33.0519 -91.8072 114° Southeast 479 551 45,000  Level Memphis Center
03:13PM 33.0033 -91.6725 113° Southeast 484 557 45,000  Level Memphis Center
03:14PM 32.9503 -91.5308 114° Southeast 484 557 45,000  Level Memphis Center
03:15PM 32.8953 -91.3842 114° Southeast 484 557 45,000  Level Memphis Center
03:16PM 32.8400 -91.2400 114° Southeast 484 557 45,000  Level Memphis Center
03:17PM 32.7867 -91.0936 113° Southeast 479 551 45,000  Level Memphis Center
03:18PM 32.7311 -90.9500 115° Southeast 474 545 45,000  Level Memphis Center
03:19PM 32.6775 -90.8064 114° Southeast 474 545 45,000  Level Memphis Center
03:20PM 32.6194 -90.6606 115° Southeast 479 551 45,000  Level Memphis Center
03:21PM 32.5653 -90.5175 114° Southeast 479 551 45,000  Level Memphis Center
03:22PM 32.5092 -90.3722 115° Southeast 479 551 45,000  Level Memphis Center
03:23PM 32.4547 -90.2292 114° Southeast 479 551 45,000  Level Memphis Center
03:24PM 32.3919 -90.0694 115° Southeast 479 551 45,000  Level Memphis Center
03:25PM 32.3350 -89.9269 115° Southeast 479 551 45,000  Level Memphis Center
03:26PM 32.2803 -89.7822 114° Southeast 479 551 45,000  Level Memphis Center
03:27PM 32.2253 -89.6403 115° Southeast 479 551 45,000  Level Memphis Center
03:28PM 32.1678 -89.4958 115° Southeast 479 551 45,000  Level Memphis Center
03:29PM 32.1125 -89.3542 115° Southeast 479 551 45,000  Level Memphis Center
03:30PM 32.0550 -89.2128 116° Southeast 479 551 45,000  Level Memphis Center
03:31PM 31.9972 -89.0689 115° Southeast 479 551 45,000 60 Level Memphis Center
03:32PM 31.9414 -88.9253 115° Southeast 479 551 45,200 300 Climbing Memphis Center
03:33PM 31.8833 -88.7892 117° Southeast 469 540 45,700 480 Climbing Memphis Center
03:33PM 31.8500 -88.7050 115° Southeast 481 554 46,000 420 Climbing Houston Center
03:34PM 31.7944 -88.5664 115° Southeast 471 542 46,400 420 Climbing Houston Center
03:35PM 31.7372 -88.4272 116° Southeast 470 541 46,900 240 Climbing Houston Center
03:36PM 31.6811 -88.2892 116° Southeast 468 539 47,000  Climbing Houston Center
03:37PM 31.6250 -88.1494 115° Southeast 471 542 47,000  Level Houston Center
03:39PM 31.5575 -88.0119 120° Southeast 482 555 47,000  Level Houston Center
03:40PM 31.4783 -87.8422 119° Southeast 489 563 47,000  Level Houston Center
03:41PM 31.4178 -87.6992 116° Southeast 489 563 47,000  Level Houston Center
03:42PM 31.3633 -87.5556 114° Southeast 482 555 47,000  Level Houston Center
03:43PM 31.3161 -87.4103 111° Southeast 478 550 47,000  Level Houston Center
03:44PM 31.2592 -87.2700 115° Southeast 477 549 47,000  Level Houston Center
03:45PM 31.1983 -87.1314 117° Southeast 479 551 47,000  Level Houston Center
03:46PM 31.1333 -86.9797 117° Southeast 480 552 47,000  Level Houston Center
03:47PM 31.0736 -86.8406 117° Southeast 481 554 47,000  Level Houston Center
03:48PM 31.0150 -86.7008 116° Southeast 480 552 47,000  Level Houston Center
03:49PM 30.9544 -86.5603 117° Southeast 483 556 47,000  Level Houston Center
03:50PM 30.8808 -86.3939 117° Southeast 482 555 47,000  Level Houston Center
03:51PM 30.8214 -86.2525 116° Southeast 481 554 47,000  Level Jacksonville Center
03:52PM 30.7581 -86.1150 118° Southeast 476 548 47,000  Level Jacksonville Center
03:53PM 30.6989 -85.9753 116° Southeast 476 548 47,000  Level Jacksonville Center
03:54PM 30.6439 -85.8311 114° Southeast 481 554 47,000  Level Jacksonville Center
03:55PM 30.5867 -85.6869 115° Southeast 481 554 47,000  Level Jacksonville Center
03:56PM 30.5247 -85.5500 118° Southeast 481 554 47,000  Level Jacksonville Center
03:57PM 30.4631 -85.4086 117° Southeast 481 554 47,000  Level Jacksonville Center
03:58PM 30.3992 -85.2550 116° Southeast 481 554 47,000  Level Jacksonville Center
03:59PM 30.3369 -85.1142 117° Southeast 481 554 47,000  Level Jacksonville Center
04:00PM 30.2703 -84.9756 119° Southeast 481 554 47,000  Level Jacksonville Center
04:01PM 30.1994 -84.8417 121° Southeast 486 559 47,000  Level Jacksonville Center
04:02PM 30.1347 -84.7036 118° Southeast 491 565 47,000  Level Jacksonville Center
04:03PM 30.0697 -84.5678 119° Southeast 491 565 47,000  Level Jacksonville Center
04:04PM 30.0089 -84.4253 116° Southeast 486 559 47,000  Level Jacksonville Center
04:05PM 29.9436 -84.2878 119° Southeast 486 559 47,000  Level Jacksonville Center
04:06PM 29.8886 -84.1669 118° Southeast 472 543 47,000  Level Jacksonville Center
04:07PM 29.8231 -84.0272 118° Southeast 477 549 47,000  Level Jacksonville Center
04:08PM 29.7594 -83.8856 117° Southeast 487 560 47,000  Level Jacksonville Center
04:09PM 29.6936 -83.7461 118° Southeast 487 560 47,000  Level Jacksonville Center
04:10PM 29.6278 -83.6069 119° Southeast 487 560 47,000  Level Jacksonville Center
04:11PM 29.5636 -83.4681 118° Southeast 487 560 47,000  Level Jacksonville Center
04:12PM 29.4975 -83.3292 119° Southeast 492 566 47,000  Level Jacksonville Center
04:13PM 29.4289 -83.1906 120° Southeast 492 566 47,000  Level Jacksonville Center
04:14PM 29.3644 -83.0497 118° Southeast 492 566 47,000 -240 Level Jacksonville Center
04:15PM 29.3000 -82.9092 118° Southeast 498 573 46,600 -660 Descending Jacksonville Center
04:16PM 29.2353 -82.7711 118° Southeast 498 573 45,700 -840 Descending Jacksonville Center
04:17PM 29.1681 -82.6311 119° Southeast 498 573 45,000 -360 Descending Jacksonville Center
04:18PM 29.1031 -82.4908 118° Southeast 498 573 45,000  Level Jacksonville Center
04:19PM 29.0336 -82.3536 120° Southeast 498 573 45,000  Level Jacksonville Center
04:20PM 28.9661 -82.2114 118° Southeast 498 573 45,000  Level Jacksonville Center
04:21PM 28.9050 -82.0742 117° Southeast 493 567 45,000  Level Jacksonville Center
04:22PM 28.8350 -81.9328 119° Southeast 498 573 45,000  Level Jacksonville Center
04:24PM 28.6747 -81.6117 120° Southeast 511 588 45,000  Level Miami Center
04:25PM 28.6061 -81.4742 120° Southeast 506 582 45,000  Level Miami Center
04:26PM 28.5517 -81.3514 117° Southeast 493 567 45,000  Level Miami Center
04:27PM 28.4658 -81.2250 128° Southeast 498 573 45,000  Level Miami Center
04:28PM 28.3797 -81.1014 128° Southeast 498 573 45,000  Level Miami Center
04:29PM 28.2917 -80.9756 128° Southeast 503 579 45,000  Level Miami Center
04:30PM 28.2075 -80.8500 127° Southeast 503 579 45,000  Level Miami Center
04:31PM 28.1211 -80.7269 129° Southeast 508 585 45,000  Level Miami Center
04:32PM 28.0539 -80.5928 120° Southeast 496 571 45,000  Level Miami Center
04:33PM 27.9869 -80.4378 116° Southeast 496 571 45,000  Level Miami Center
04:34PM 27.9278 -80.2950 115° Southeast 491 565 45,000  Level Miami Center
04:35PM 27.8742 -80.1711 116° Southeast 491 565 45,000  Level Miami Center
04:36PM 27.8147 -80.0308 116° Southeast 491 565 45,000 -1,500 Level Miami Center
04:37PM 27.7531 -79.8839 115° Southeast 491 565 42,100 -3,000 Descending Miami Center
04:38PM 27.6953 -79.7508 116° Southeast 473 544 39,000 -2,520 Descending Miami Center
04:39PM 27.6394 -79.6158 115° Southeast 468 539 37,100 -1,500 Descending Miami Center
04:40PM 27.5856 -79.4950 117° Southeast 474 545 36,000 -840 Descending Miami Center
04:41PM 27.5192 -79.3389 116° Southeast 487 560 35,500 -1,260 Descending Miami Center
04:42PM 27.4608 -79.2042 116° Southeast 487 560 33,500 -2,220 Descending Miami Center
04:43PM 27.4025 -79.0697 116° Southeast 482 555 31,100 -2,520 Descending Miami Center
04:44PM 27.3458 -78.9472 117° Southeast 477 549 28,500 -2,580 Descending Miami Center
04:45PM 27.2892 -78.8128 115° Southeast 477 549 26,000 -2,640 Descending Miami Center
04:46PM 27.2325 -78.6811 116° Southeast 470 541 23,300 -2,820 Descending Miami Center
04:47PM 27.1756 -78.5542 117° Southeast 464 534 20,400 -2,940 Descending Miami Center
04:48PM 27.1247 -78.4319 115° Southeast 446 513 17,500 -2,880 Descending Miami Center
04:49PM 27.0653 -78.3192 121° Southeast 432 497 14,700 -2,400 Descending Miami Center
04:50PM 27.0100 -78.2111 120° Southeast 415 478 12,800 -1,860 Descending Miami Center
04:51PM 26.9606 -78.1175 121° Southeast 382 440 11,000 -1,800 Descending Miami Center
04:52PM 26.9028 -78.0561 137° Southeast 306 352 9,200 -1,620 Descending Miami Center
04:53PM 26.8489 -77.9928 134° Southeast 296 341 7,800 -1,140 Descending Miami Center
04:54PM 26.8181 -77.9156 114° Southeast 280 322 7,000 -420 Descending Miami Center
04:55PM 26.7872 -77.8433 116° Southeast 264 304 7,000  Level Miami Center
04:56PM 26.7606 -77.7617 110° East 258 297 7,000  Level Miami Center
04:57PM 26.7339 -77.6939 114° Southeast 258 297 7,000  Level Miami Center
04:58PM 26.7050 -77.6147 112° Southeast 256 295 7,000  Level Miami Center
04:59PM 26.6700 -77.5375 117° Southeast 262 302 7,000  Level Miami Center
05:00PM 26.6328 -77.4606 118° Southeast 254 292 7,000  Level Miami Center
05:01PM 26.5994 -77.3886 117° Southeast 254 292 7,000  Level Miami Center